Time;durP1;ratioP1;P1;durP2;ratioP2;P2;SDS_P1;SDS_P2;PMS_P1;PMS_P2;Temp;Humidity;BMP_temperature;BMP_pressure;BME280_temperature;BME280_humidity;BME280_pressure;Samples;Min_cycle;Max_cycle;Signal;HPM_P1;HPM_P2
2021/09/10 00:00:18;;;;;;;15.40;12.68;;;;;;;14.31;100.00;95968.03;1036302;28;20026;-51
2021/09/10 00:00:49;;;;;;;14.35;12.18;;;;;;;14.40;100.00;95966.41;1032164;28;20022;-51
2021/09/10 00:01:19;;;;;;;13.68;12.20;;;;;;;14.44;100.00;95964.34;1032339;28;20121;-52
2021/09/10 00:01:50;;;;;;;16.55;11.50;;;;;;;14.46;100.00;95963.25;1040201;28;20049;-53
2021/09/10 00:02:21;;;;;;;14.00;12.32;;;;;;;14.48;100.00;95955.22;1048476;28;20590;-51
2021/09/10 00:02:51;;;;;;;14.43;13.02;;;;;;;14.46;100.00;95963.25;1048507;28;20389;-50
2021/09/10 00:03:22;;;;;;;14.15;12.13;;;;;;;14.46;100.00;95955.34;1040378;28;20017;-51
2021/09/10 00:03:53;;;;;;;13.85;11.57;;;;;;;14.50;100.00;95959.38;1040080;28;20506;-51
2021/09/10 00:04:23;;;;;;;13.57;12.18;;;;;;;14.57;100.00;95967.63;1040269;28;20094;-49
2021/09/10 00:04:54;;;;;;;13.95;12.45;;;;;;;14.57;100.00;95963.19;1040473;28;20105;-51
2021/09/10 00:05:25;;;;;;;13.52;11.63;;;;;;;14.55;100.00;95962.47;1044556;28;20483;-52
2021/09/10 00:05:55;;;;;;;12.88;11.57;;;;;;;14.50;100.00;95962.00;1040598;28;20398;-51
2021/09/10 00:06:26;;;;;;;13.70;12.30;;;;;;;14.51;100.00;95961.06;1036060;28;20026;-49
2021/09/10 00:06:56;;;;;;;13.65;12.25;;;;;;;14.51;100.00;95954.97;1040295;28;20021;-52
2021/09/10 00:07:27;;;;;;;13.23;11.90;;;;;;;14.49;100.00;95959.50;1032177;28;20018;-48
2021/09/10 00:07:58;;;;;;;16.88;12.43;;;;;;;14.52;100.00;95965.34;1036057;28;20541;-51
2021/09/10 00:08:28;;;;;;;14.52;12.80;;;;;;;14.48;100.00;95963.94;1036133;28;20109;-51
2021/09/10 00:08:59;;;;;;;14.25;12.35;;;;;;;14.54;100.00;95962.59;1040310;28;20100;-50
2021/09/10 00:09:29;;;;;;;13.45;11.85;;;;;;;14.51;100.00;95968.16;1040188;28;20499;-51
2021/09/10 00:10:01;;;;;;;15.05;11.88;;;;;;;14.47;100.00;95964.94;1036032;28;20395;-51
2021/09/10 00:10:31;;;;;;;14.88;12.52;;;;;;;14.47;100.00;95961.44;1032221;28;20025;-51
2021/09/10 00:11:02;;;;;;;13.43;12.02;;;;;;;14.43;100.00;95970.59;1032767;28;20532;-51
2021/09/10 00:11:33;;;;;;;15.82;12.52;;;;;;;14.42;100.00;95958.38;1032900;28;20110;-52
2021/09/10 00:12:04;;;;;;;13.45;12.05;;;;;;;14.46;100.00;95965.88;1044574;28;20111;-50
2021/09/10 00:12:35;;;;;;;14.10;11.63;;;;;;;14.43;100.00;95965.31;1036204;28;20030;-51
2021/09/10 00:13:05;;;;;;;15.73;12.55;;;;;;;14.43;100.00;95970.59;1032233;28;20054;-51
2021/09/10 00:13:36;;;;;;;15.43;12.60;;;;;;;14.43;100.00;95970.59;1032157;28;20085;-51
2021/09/10 00:14:07;;;;;;;13.48;12.07;;;;;;;14.48;100.00;95963.13;1036048;28;20051;-51
2021/09/10 00:14:37;;;;;;;13.13;11.57;;;;;;;14.53;100.00;95963.56;1036531;28;20033;-51
2021/09/10 00:15:08;;;;;;;12.75;11.23;;;;;;;14.54;100.00;95963.41;1036119;28;20028;-51
2021/09/10 00:15:39;;;;;;;13.95;12.32;;;;;;;14.51;100.00;95963.69;1034995;28;20022;-51
2021/09/10 00:16:09;;;;;;;13.60;12.18;;;;;;;14.43;100.00;95960.88;1032167;28;20022;-51
2021/09/10 00:16:40;;;;;;;13.50;11.60;;;;;;;14.46;100.00;95963.25;1028246;28;20057;-51
2021/09/10 00:17:11;;;;;;;16.27;12.38;;;;;;;14.43;100.00;95957.41;1028406;28;20027;-51
2021/09/10 00:17:42;;;;;;;13.70;11.80;;;;;;;14.44;100.00;95962.53;1032138;28;20022;-51
2021/09/10 00:18:12;;;;;;;13.70;12.02;;;;;;;14.43;100.00;95962.69;1027996;28;20027;-53
2021/09/10 00:18:43;;;;;;;14.18;12.45;;;;;;;14.43;100.00;95965.31;1028119;28;20023;-55
2021/09/10 00:19:13;;;;;;;18.63;12.32;;;;;;;14.44;100.00;95959.09;1028250;28;20072;-54
2021/09/10 00:19:44;;;;;;;15.60;11.98;;;;;;;14.38;100.00;95963.91;1032572;28;20499;-53
2021/09/10 00:20:14;;;;;;;13.98;12.48;;;;;;;14.37;100.00;95970.13;1044575;28;20486;-53
2021/09/10 00:20:45;;;;;;;13.85;12.38;;;;;;;14.35;100.00;95964.16;1036162;28;20104;-54
2021/09/10 00:21:16;;;;;;;15.80;12.93;;;;;;;14.34;100.00;95961.66;1036172;28;20450;-51
2021/09/10 00:21:47;;;;;;;13.75;12.07;;;;;;;14.36;100.00;95959.75;1036066;28;20053;-51
2021/09/10 00:22:17;;;;;;;14.82;13.02;;;;;;;14.35;100.00;95968.59;1036021;28;20018;-51
2021/09/10 00:22:48;;;;;;;13.27;11.68;;;;;;;14.36;100.00;95965.03;1027791;28;20392;-51
2021/09/10 00:23:18;;;;;;;15.77;11.80;;;;;;;14.39;100.00;95956.81;1028048;28;20105;-51
2021/09/10 00:23:49;;;;;;;13.55;12.13;;;;;;;14.36;100.00;95963.22;1028224;28;20019;-51
2021/09/10 00:24:20;;;;;;;13.30;12.00;;;;;;;14.34;100.00;95964.28;1028265;28;20102;-52
2021/09/10 00:24:50;;;;;;;15.77;12.02;;;;;;;14.32;100.00;95971.50;1028159;28;20105;-50
2021/09/10 00:25:22;;;;;;;14.07;12.35;;;;;;;14.31;100.00;95967.19;1036234;28;20459;-51
2021/09/10 00:25:52;;;;;;;16.55;12.68;;;;;;;14.32;100.00;95960.94;1032149;28;20021;-51
2021/09/10 00:26:23;;;;;;;13.50;12.10;;;;;;;14.30;100.00;95970.78;1027980;28;20098;-51
2021/09/10 00:26:53;;;;;;;14.38;12.45;;;;;;;14.28;100.00;95967.44;1027913;28;20007;-51
2021/09/10 00:27:24;;;;;;;15.02;12.05;;;;;;;14.26;100.00;95959.66;1032088;28;20105;-51
2021/09/10 00:27:54;;;;;;;12.80;11.50;;;;;;;14.30;100.00;95968.16;1028078;28;20014;-51
2021/09/10 00:28:25;;;;;;;14.45;11.70;;;;;;;14.30;100.00;95965.50;1032080;28;20105;-50
2021/09/10 00:28:56;;;;;;;13.80;12.02;;;;;;;14.26;100.00;95961.47;1027949;28;20110;-51
2021/09/10 00:29:27;;;;;;;13.20;11.90;;;;;;;14.23;100.00;95967.84;1032038;28;20038;-50
2021/09/10 00:29:58;;;;;;;15.70;13.15;;;;;;;14.24;100.00;95971.31;1032087;28;20014;-52
2021/09/10 00:30:28;;;;;;;13.77;12.23;;;;;;;14.25;100.00;95976.47;1036131;28;20017;-51
2021/09/10 00:30:59;;;;;;;13.18;11.77;;;;;;;14.30;100.00;95970.78;1040125;28;20093;-51
2021/09/10 00:31:30;;;;;;;12.23;10.95;;;;;;;14.30;100.00;95966.38;1036183;28;20049;-51
2021/09/10 00:32:01;;;;;;;13.82;11.65;;;;;;;14.33;100.00;95965.28;1028058;28;20023;-51
2021/09/10 00:32:31;;;;;;;15.23;12.10;;;;;;;14.30;100.00;95963.75;1032124;28;20575;-51
2021/09/10 00:33:02;;;;;;;14.27;11.75;;;;;;;14.28;100.00;95968.28;1031878;28;20057;-51
2021/09/10 00:33:34;;;;;;;14.30;11.00;;;;;;;14.26;100.00;95966.75;1027992;28;20030;-51
2021/09/10 00:34:05;;;;;;;13.82;12.43;;;;;;;14.27;100.00;95961.34;1031996;28;20141;-52
2021/09/10 00:34:35;;;;;;;14.52;12.02;;;;;;;14.28;100.00;95959.53;1031996;28;20023;-53
2021/09/10 00:35:06;;;;;;;14.15;11.93;;;;;;;14.33;100.00;95958.19;1027867;28;20022;-54
2021/09/10 00:35:37;;;;;;;12.68;11.13;;;;;;;14.33;100.00;95966.09;1028062;28;20092;-53
2021/09/10 00:36:07;;;;;;;13.02;11.15;;;;;;;14.31;100.00;95957.47;1031669;28;20122;-53
2021/09/10 00:36:38;;;;;;;12.80;11.30;;;;;;;14.29;100.00;95961.22;1031964;28;20105;-53
2021/09/10 00:37:09;;;;;;;14.75;11.85;;;;;;;14.26;100.00;95964.13;1031973;28;20025;-51
2021/09/10 00:37:39;;;;;;;13.25;11.85;;;;;;;14.24;100.00;95960.78;1031943;28;20025;-52
2021/09/10 00:38:10;;;;;;;14.52;12.02;;;;;;;14.25;100.00;95965.91;1032094;28;20025;-53
2021/09/10 00:38:41;;;;;;;15.55;11.75;;;;;;;14.23;100.00;95953.81;1028239;28;20339;-52
2021/09/10 00:39:12;;;;;;;14.73;11.90;;;;;;;14.17;100.00;95961.31;1032120;28;20023;-53
2021/09/10 00:39:43;;;;;;;14.38;11.75;;;;;;;14.20;100.00;95962.84;1036362;28;20615;-53
2021/09/10 00:40:14;;;;;;;13.88;11.52;;;;;;;14.20;100.00;95970.75;1036093;28;20133;-53
2021/09/10 00:40:45;;;;;;;15.77;11.95;;;;;;;14.20;100.00;95957.56;1036127;28;20029;-54
2021/09/10 00:41:16;;;;;;;13.57;11.63;;;;;;;14.23;100.00;95959.94;1032097;28;20400;-53
2021/09/10 00:41:46;;;;;;;13.27;11.88;;;;;;;14.20;100.00;95962.84;1028220;28;20015;-54
2021/09/10 00:42:17;;;;;;;12.52;11.23;;;;;;;14.17;100.00;95961.31;1028275;28;20094;-53
2021/09/10 00:42:48;;;;;;;13.50;12.10;;;;;;;14.17;100.00;95960.44;1032160;28;20038;-52
2021/09/10 00:43:18;;;;;;;15.80;11.65;;;;;;;14.16;100.00;95956.16;1028000;28;20057;-53
2021/09/10 00:43:49;;;;;;;14.18;12.38;;;;;;;14.11;100.00;95961.81;1032324;28;20061;-53
2021/09/10 00:44:19;;;;;;;17.13;13.18;;;;;;;14.08;100.00;95964.72;1035985;28;20388;-53
2021/09/10 00:44:50;;;;;;;14.45;11.80;;;;;;;14.11;100.00;95961.81;1036028;28;20121;-50
2021/09/10 00:45:20;;;;;;;14.02;11.85;;;;;;;14.11;100.00;95963.59;1027870;28;20034;-52
2021/09/10 00:45:51;;;;;;;15.90;11.32;;;;;;;14.09;100.00;95965.53;1028163;28;20114;-51
2021/09/10 00:46:22;;;;;;;15.18;11.38;;;;;;;14.12;100.00;95965.28;1028295;28;20098;-50
2021/09/10 00:46:52;;;;;;;13.68;12.20;;;;;;;14.11;100.00;95966.25;1032156;28;20022;-54
2021/09/10 00:47:23;;;;;;;13.82;12.38;;;;;;;14.09;100.00;95961.09;1031896;28;20477;-54
2021/09/10 00:47:55;;;;;;;13.90;12.45;;;;;;;14.09;100.00;95965.53;1028100;28;20341;-54
2021/09/10 00:48:26;;;;;;;13.70;12.23;;;;;;;14.10;100.00;95967.22;1028733;28;20018;-54
2021/09/10 00:48:57;;;;;;;15.73;12.88;;;;;;;14.14;100.00;95963.38;1028327;28;20485;-53
2021/09/10 00:49:27;;;;;;;13.32;11.95;;;;;;;14.11;100.00;95966.25;1031715;28;20023;-54
2021/09/10 00:49:58;;;;;;;13.52;11.60;;;;;;;14.12;100.00;95962.66;1028071;28;20242;-53
2021/09/10 00:50:29;;;;;;;13.85;11.90;;;;;;;14.12;100.00;95967.94;1028042;28;20039;-54
2021/09/10 00:51:00;;;;;;;18.75;13.27;;;;;;;14.13;100.00;95965.16;1028066;28;20388;-54
2021/09/10 00:51:30;;;;;;;13.23;11.85;;;;;;;14.17;100.00;95971.00;1035851;28;20018;-53
2021/09/10 00:52:01;;;;;;;13.23;11.65;;;;;;;14.13;100.00;95965.16;1036039;28;20084;-55
2021/09/10 00:52:31;;;;;;;13.45;12.02;;;;;;;14.12;100.00;95973.19;1031940;28;20426;-51
2021/09/10 00:53:02;;;;;;;14.48;12.05;;;;;;;14.08;100.00;95967.34;1031821;28;20025;-52
2021/09/10 00:53:33;;;;;;;14.05;12.27;;;;;;;14.11;100.00;95971.50;1035863;28;20026;-52
2021/09/10 00:54:04;;;;;;;14.02;12.63;;;;;;;14.08;100.00;95977.06;1027896;28;20026;-54
2021/09/10 00:54:34;;;;;;;14.07;12.07;;;;;;;14.07;100.00;95968.28;1031961;28;20020;-53
2021/09/10 00:55:06;;;;;;;14.38;11.85;;;;;;;14.08;100.00;95972.63;1035936;28;20021;-54
2021/09/10 00:55:36;;;;;;;17.20;12.38;;;;;;;14.08;100.00;95962.09;1035828;28;20018;-53
2021/09/10 00:56:07;;;;;;;13.50;12.10;;;;;;;14.05;100.00;95970.22;1031930;28;20440;-53
2021/09/10 00:56:38;;;;;;;16.17;12.82;;;;;;;14.03;100.00;95974.78;1035853;28;20049;-54
2021/09/10 00:57:09;;;;;;;17.08;12.38;;;;;;;14.03;100.00;95979.22;1040200;28;20472;-55
2021/09/10 00:57:39;;;;;;;14.75;12.13;;;;;;;14.00;100.00;95975.91;1032002;28;20029;-53
2021/09/10 00:58:11;;;;;;;13.75;12.35;;;;;;;13.98;100.00;95972.56;1027927;28;20023;-53
2021/09/10 00:58:42;;;;;;;15.77;12.65;;;;;;;13.96;100.00;95977.13;1032039;28;20015;-53
2021/09/10 00:59:12;;;;;;;14.15;12.65;;;;;;;13.94;100.00;95971.13;1036013;28;20028;-53
2021/09/10 00:59:43;;;;;;;14.30;12.20;;;;;;;13.96;100.00;95978.91;1040156;28;20075;-54
2021/09/10 01:00:14;;;;;;;14.15;12.07;;;;;;;13.95;100.00;95969.34;1044222;28;20029;-54
2021/09/10 01:00:44;;;;;;;13.77;12.38;;;;;;;13.94;100.00;95973.75;1040272;28;20067;-54
2021/09/10 01:01:15;;;;;;;13.55;12.15;;;;;;;13.92;100.00;95975.69;1036024;28;20022;-53
2021/09/10 01:01:46;;;;;;;15.27;11.80;;;;;;;13.92;100.00;95975.69;1031972;28;20024;-54
2021/09/10 01:02:17;;;;;;;12.93;11.63;;;;;;;13.89;100.00;95972.47;1036047;28;20018;-54
2021/09/10 01:02:48;;;;;;;14.82;12.38;;;;;;;13.86;100.00;95978.84;1031767;28;20030;-54
2021/09/10 01:03:19;;;;;;;15.10;12.27;;;;;;;13.88;100.00;95986.63;1031777;28;20018;-53
2021/09/10 01:03:50;;;;;;;15.50;13.13;;;;;;;13.92;100.00;95977.50;1036065;28;20025;-53
2021/09/10 01:04:22;;;;;;;14.77;12.13;;;;;;;13.89;100.00;95981.22;1031830;28;20483;-54
2021/09/10 01:04:54;;;;;;;16.25;12.95;;;;;;;13.92;100.00;95978.31;1032446;28;20022;-53
2021/09/10 01:05:25;;;;;;;15.55;13.23;;;;;;;13.96;100.00;95978.91;1032652;28;20022;-53
2021/09/10 01:05:57;;;;;;;14.43;12.07;;;;;;;13.97;100.00;95978.78;1031907;28;20475;-54
2021/09/10 01:06:28;;;;;;;13.25;11.68;;;;;;;14.00;100.00;95973.25;1031868;28;20510;-53
2021/09/10 01:06:59;;;;;;;14.00;12.20;;;;;;;14.02;100.00;95974.91;1028027;28;20022;-54
2021/09/10 01:07:29;;;;;;;15.45;13.13;;;;;;;13.96;100.00;95974.50;1031967;28;20025;-53
2021/09/10 01:08:00;;;;;;;14.23;12.73;;;;;;;13.94;100.00;95972.94;1032101;28;20022;-52
2021/09/10 01:08:31;;;;;;;14.73;12.38;;;;;;;13.95;100.00;95977.25;1032004;28;20040;-51
2021/09/10 01:09:02;;;;;;;13.80;12.23;;;;;;;13.95;100.00;95974.59;1032175;28;20015;-54
2021/09/10 01:09:32;;;;;;;14.00;12.57;;;;;;;13.95;100.00;95979.88;1028482;28;20029;-52
2021/09/10 01:10:05;;;;;;;14.35;12.85;;;;;;;13.99;100.00;95973.38;1032305;28;20476;-52
2021/09/10 01:10:36;;;;;;;13.65;12.25;;;;;;;13.96;100.00;95971.84;1028238;28;20559;-53
2021/09/10 01:11:07;;;;;;;16.75;13.35;;;;;;;13.97;100.00;95970.03;1027855;28;20109;-52
2021/09/10 01:11:37;;;;;;;14.60;13.02;;;;;;;13.99;100.00;95973.38;1032117;28;20041;-51
2021/09/10 01:12:08;;;;;;;15.02;13.40;;;;;;;13.99;100.00;95976.03;1036178;28;20076;-51
2021/09/10 01:12:40;;;;;;;14.40;12.65;;;;;;;13.97;100.00;95973.50;1035835;28;20418;-53
2021/09/10 01:13:12;;;;;;;14.65;12.95;;;;;;;13.96;100.00;95971.84;1027776;28;20110;-52
2021/09/10 01:13:43;;;;;;;15.43;13.30;;;;;;;13.94;100.00;95978.19;1031912;28;20109;-52
2021/09/10 01:14:15;;;;;;;15.10;13.50;;;;;;;13.91;100.00;95975.84;1032059;28;20022;-54
2021/09/10 01:14:46;;;;;;;14.45;12.93;;;;;;;13.89;100.00;95983.00;1033234;28;20029;-53
2021/09/10 01:15:17;;;;;;;15.60;12.52;;;;;;;13.87;100.00;95975.25;1036243;28;20395;-53
2021/09/10 01:15:47;;;;;;;14.20;12.45;;;;;;;13.87;100.00;95967.34;1034216;28;20045;-52
2021/09/10 01:16:18;;;;;;;16.27;13.52;;;;;;;13.90;100.00;95979.41;1036010;28;20025;-54
2021/09/10 01:16:49;;;;;;;14.85;13.35;;;;;;;13.91;100.00;95974.03;1031750;28;20028;-52
2021/09/10 01:17:19;;;;;;;13.82;12.40;;;;;;;13.88;100.00;95986.63;1032003;28;20380;-51
2021/09/10 01:17:51;;;;;;;16.05;13.32;;;;;;;13.89;100.00;95975.09;1035874;28;20029;-53
2021/09/10 01:18:21;;;;;;;15.32;13.52;;;;;;;13.87;100.00;95974.41;1039991;28;20065;-52
2021/09/10 01:18:52;;;;;;;14.43;13.02;;;;;;;13.91;100.00;95978.47;1039847;28;20506;-53
2021/09/10 01:19:24;;;;;;;16.98;14.13;;;;;;;13.88;100.00;95981.34;1035866;28;20024;-51
2021/09/10 01:19:55;;;;;;;15.13;13.18;;;;;;;13.86;100.00;95981.47;1035982;28;20018;-52
2021/09/10 01:20:26;;;;;;;16.17;13.32;;;;;;;13.85;100.00;95986.84;1044133;28;20024;-51
2021/09/10 01:20:56;;;;;;;13.90;12.48;;;;;;;13.82;100.00;95982.69;1039913;28;20017;-52
2021/09/10 01:21:27;;;;;;;15.82;14.13;;;;;;;13.81;100.00;95983.63;1031917;28;20480;-53
2021/09/10 01:22:00;;;;;;;14.02;12.55;;;;;;;13.77;100.00;95990.97;1040060;28;20555;-53
2021/09/10 01:22:30;;;;;;;15.38;13.25;;;;;;;13.78;100.00;95983.91;1035861;28;20022;-54
2021/09/10 01:23:01;;;;;;;14.80;12.45;;;;;;;13.83;100.00;95986.16;1035574;28;20018;-52
2021/09/10 01:23:31;;;;;;;15.82;12.90;;;;;;;13.83;100.00;95992.25;1035838;28;20090;-54
2021/09/10 01:24:02;;;;;;;14.88;13.25;;;;;;;13.84;100.00;95987.84;1035841;28;20049;-51
2021/09/10 01:24:38;;;;;;;14.15;12.65;;;;;;;13.80;100.00;95982.81;1035773;28;20021;-51
2021/09/10 01:25:12;;;;;;;15.07;13.48;;;;;;;13.78;100.00;95986.56;1035853;28;20022;-52
2021/09/10 01:25:43;;;;;;;14.73;12.10;;;;;;;13.74;100.00;95983.34;1036001;28;20021;-51
2021/09/10 01:26:14;;;;;;;14.02;12.63;;;;;;;13.73;100.00;95992.19;1037259;28;20487;-51
2021/09/10 01:26:44;;;;;;;15.02;13.25;;;;;;;13.73;100.00;95988.72;1036508;28;20025;-52
2021/09/10 01:27:15;;;;;;;14.02;12.57;;;;;;;13.71;100.00;95988.84;1031736;28;20056;-52
2021/09/10 01:27:51;;;;;;;14.55;13.05;;;;;;;13.72;100.00;95992.28;1035898;28;20022;-52
2021/09/10 01:28:22;;;;;;;14.02;12.52;;;;;;;13.73;100.00;95984.28;1040056;28;20437;-51
2021/09/10 01:28:54;;;;;;;14.90;12.73;;;;;;;13.75;100.00;95981.53;1035969;28;20139;-52
2021/09/10 01:29:25;;;;;;;13.73;12.27;;;;;;;13.75;100.00;95986.78;1039896;28;20621;-52
2021/09/10 01:29:57;;;;;;;17.83;13.98;;;;;;;13.73;100.00;95984.28;1036943;28;20053;-52
2021/09/10 01:30:30;;;;;;;14.63;13.18;;;;;;;13.71;100.00;95986.22;1036486;28;20033;-52
2021/09/10 01:31:01;;;;;;;13.10;11.68;;;;;;;13.68;100.00;95990.88;1032561;28;20512;-53
2021/09/10 01:31:32;;;;;;;13.95;12.55;;;;;;;13.68;100.00;95982.97;1032438;28;20030;-54
2021/09/10 01:32:03;;;;;;;14.65;13.15;;;;;;;13.69;100.00;95988.13;1035818;28;20038;-51
2021/09/10 01:32:34;;;;;;;19.42;14.25;;;;;;;13.64;100.00;95992.09;1036063;28;20022;-51
2021/09/10 01:33:07;;;;;;;15.15;13.05;;;;;;;13.65;100.00;95991.97;1035564;28;20022;-52
2021/09/10 01:33:38;;;;;;;15.45;13.27;;;;;;;13.67;100.00;95994.50;1036435;28;20018;-51
2021/09/10 01:34:08;;;;;;;16.45;13.13;;;;;;;13.70;100.00;95997.72;1035835;28;20482;-54
2021/09/10 01:34:39;;;;;;;15.27;13.65;;;;;;;13.76;100.00;95999.00;1031677;28;20419;-52
2021/09/10 01:35:10;;;;;;;15.15;13.18;;;;;;;13.71;100.00;95991.47;1035727;28;20022;-51
2021/09/10 01:35:41;;;;;;;16.33;13.82;;;;;;;13.70;100.00;95995.09;1035799;28;20040;-51
2021/09/10 01:36:14;;;;;;;15.25;13.30;;;;;;;13.67;100.00;95987.41;1040020;28;20072;-52
2021/09/10 01:36:45;;;;;;;15.00;13.40;;;;;;;13.70;100.00;95989.81;1035778;28;20032;-52
2021/09/10 01:37:16;;;;;;;18.85;14.00;;;;;;;13.70;100.00;95996.84;1036007;28;20033;-51
2021/09/10 01:37:47;;;;;;;15.10;13.50;;;;;;;13.70;100.00;95997.72;1031799;28;20097;-52
2021/09/10 01:38:18;;;;;;;14.20;12.77;;;;;;;13.72;100.00;95994.94;1035846;28;20483;-51
2021/09/10 01:38:49;;;;;;;17.48;13.88;;;;;;;13.72;100.00;95998.41;1031872;28;20022;-52
2021/09/10 01:39:19;;;;;;;15.10;13.55;;;;;;;13.72;100.00;95997.56;1035786;28;20018;-54
2021/09/10 01:39:50;;;;;;;15.57;13.48;;;;;;;13.73;100.00;95997.44;1035833;28;20105;-54
2021/09/10 01:40:21;;;;;;;14.88;13.25;;;;;;;13.75;100.00;95999.97;1039946;28;20179;-51
2021/09/10 01:40:52;;;;;;;15.70;12.93;;;;;;;13.79;100.00;95998.75;1035985;28;20092;-51
2021/09/10 01:41:22;;;;;;;14.23;12.48;;;;;;;13.80;100.00;95998.63;1039843;28;20056;-51
2021/09/10 01:41:53;;;;;;;16.77;13.98;;;;;;;13.79;100.00;95996.97;1039942;28;20026;-51
2021/09/10 01:42:23;;;;;;;18.50;13.48;;;;;;;13.80;100.00;95995.16;1031862;28;20030;-52
2021/09/10 01:42:54;;;;;;;14.45;12.85;;;;;;;13.77;100.00;95993.59;1035979;28;20024;-51
2021/09/10 01:43:25;;;;;;;14.65;12.90;;;;;;;13.79;100.00;96002.22;1035919;28;20049;-51
2021/09/10 01:43:55;;;;;;;14.40;12.80;;;;;;;13.84;100.00;95998.38;1039813;28;20026;-51
2021/09/10 01:44:26;;;;;;;15.50;13.18;;;;;;;13.78;100.00;95997.09;1039716;28;20060;-51
2021/09/10 01:44:57;;;;;;;16.52;13.60;;;;;;;13.78;100.00;95991.81;1035894;28;20102;-52
2021/09/10 01:45:27;;;;;;;15.25;13.13;;;;;;;13.80;100.00;95993.34;1031829;28;20022;-51
2021/09/10 01:45:58;;;;;;;18.80;13.25;;;;;;;13.78;100.00;96000.53;1035647;28;20057;-52
2021/09/10 01:46:29;;;;;;;15.48;13.75;;;;;;;13.80;100.00;95993.34;1031684;28;20041;-51
2021/09/10 01:47:00;;;;;;;15.38;12.48;;;;;;;13.80;100.00;95989.88;1035787;28;20018;-54
2021/09/10 01:47:31;;;;;;;13.60;12.20;;;;;;;13.78;100.00;95991.81;1035608;28;20057;-52
2021/09/10 01:48:02;;;;;;;15.00;13.38;;;;;;;13.79;100.00;95996.97;1035336;28;20469;-52
2021/09/10 01:48:33;;;;;;;14.60;12.80;;;;;;;13.79;100.00;95991.69;1036084;28;20010;-51
2021/09/10 01:49:04;;;;;;;16.60;13.63;;;;;;;13.76;100.00;95994.56;1036230;28;20065;-52
2021/09/10 01:49:34;;;;;;;16.40;13.55;;;;;;;13.72;100.00;95993.16;1039932;28;20045;-51
2021/09/10 01:50:08;;;;;;;15.30;13.70;;;;;;;13.68;100.00;95994.34;1039857;28;20052;-53
2021/09/10 01:50:39;;;;;;;14.95;13.43;;;;;;;13.68;100.00;95990.88;1031735;28;20026;-53
2021/09/10 01:51:09;;;;;;;15.40;13.52;;;;;;;13.69;100.00;95987.31;1035689;28;20010;-52
2021/09/10 01:51:40;;;;;;;15.57;13.90;;;;;;;13.71;100.00;95990.66;1035798;28;20506;-52
2021/09/10 01:52:10;;;;;;;14.43;12.93;;;;;;;13.73;100.00;95994.81;1035615;28;20479;-52
2021/09/10 01:52:41;;;;;;;15.52;13.13;;;;;;;13.73;100.00;95994.81;1031672;28;20022;-51
2021/09/10 01:53:11;;;;;;;16.10;13.38;;;;;;;13.75;100.00;95992.88;1035624;28;20030;-54
2021/09/10 01:53:42;;;;;;;15.50;13.40;;;;;;;13.75;100.00;95995.53;1035803;28;20054;-52
2021/09/10 01:54:13;;;;;;;16.00;12.70;;;;;;;13.73;100.00;95994.81;1035784;28;20018;-51
2021/09/10 01:54:44;;;;;;;15.00;13.20;;;;;;;13.72;100.00;95994.94;1035705;28;20014;-52
2021/09/10 01:55:15;;;;;;;14.85;13.23;;;;;;;13.74;100.00;95999.13;1036217;28;20013;-51
2021/09/10 01:55:45;;;;;;;15.68;13.63;;;;;;;13.76;100.00;96002.47;1031659;28;20423;-52
2021/09/10 01:56:16;;;;;;;14.93;13.20;;;;;;;13.72;100.00;95990.53;1031536;28;20049;-52
2021/09/10 01:56:47;;;;;;;15.93;13.88;;;;;;;13.74;100.00;95995.63;1031630;28;20101;-51
2021/09/10 01:57:17;;;;;;;14.57;12.82;;;;;;;13.73;100.00;96005.34;1035749;28;20494;-54
2021/09/10 01:57:49;;;;;;;16.25;12.90;;;;;;;13.75;100.00;96002.59;1035815;28;20018;-52
2021/09/10 01:58:20;;;;;;;16.05;13.45;;;;;;;13.77;100.00;96001.50;1035629;28;20108;-52
2021/09/10 01:58:50;;;;;;;15.48;13.52;;;;;;;13.79;100.00;95999.59;1035706;28;20024;-52
2021/09/10 01:59:21;;;;;;;14.65;12.65;;;;;;;13.79;100.00;96004.88;1035715;28;20025;-51
2021/09/10 01:59:51;;;;;;;16.45;13.45;;;;;;;13.82;100.00;96003.75;1039808;28;20379;-51
2021/09/10 02:00:22;;;;;;;14.18;12.73;;;;;;;13.77;100.00;96006.75;1035619;28;20037;-52
2021/09/10 02:00:53;;;;;;;14.82;13.32;;;;;;;13.77;100.00;96003.28;1031794;28;20472;-51
2021/09/10 02:01:24;;;;;;;15.55;13.35;;;;;;;13.82;100.00;96003.75;1031875;28;20101;-51
2021/09/10 02:01:55;;;;;;;14.52;13.02;;;;;;;13.76;100.00;95999.84;1036001;28;20025;-52
2021/09/10 02:02:25;;;;;;;16.48;14.57;;;;;;;13.79;100.00;96001.38;1035840;28;20126;-52
2021/09/10 02:02:56;;;;;;;17.15;13.52;;;;;;;13.84;100.00;96001.00;1035737;28;20024;-55
2021/09/10 02:03:28;;;;;;;15.85;13.40;;;;;;;13.83;100.00;95999.31;1039746;28;20431;-48
2021/09/10 02:03:59;;;;;;;14.25;12.80;;;;;;;13.78;100.00;96003.19;1039933;28;20018;-51
2021/09/10 02:04:30;;;;;;;15.35;12.85;;;;;;;13.77;100.00;96003.28;1031501;28;20018;-53
2021/09/10 02:05:00;;;;;;;14.95;13.13;;;;;;;13.78;100.00;96007.63;1032043;28;20177;-51
2021/09/10 02:05:31;;;;;;;14.75;12.60;;;;;;;13.77;100.00;96006.75;1031900;28;20495;-51
2021/09/10 02:06:02;;;;;;;15.50;13.05;;;;;;;13.75;100.00;96002.59;1032094;28;20033;-52
2021/09/10 02:06:32;;;;;;;13.77;12.38;;;;;;;13.74;100.00;96004.41;1039838;28;20022;-52
2021/09/10 02:07:04;;;;;;;14.85;13.07;;;;;;;13.73;100.00;96005.34;1039759;28;20475;-52
2021/09/10 02:07:35;;;;;;;16.17;12.82;;;;;;;13.78;100.00;96003.19;1039859;28;20025;-51
2021/09/10 02:08:05;;;;;;;14.57;13.00;;;;;;;13.82;100.00;96003.75;1040031;28;20067;-51
2021/09/10 02:08:36;;;;;;;16.55;14.18;;;;;;;13.80;100.00;96008.31;1039695;28;20017;-52
2021/09/10 02:09:07;;;;;;;13.95;12.55;;;;;;;13.78;100.00;96007.63;1031856;28;20041;-52
2021/09/10 02:09:37;;;;;;;17.25;13.60;;;;;;;13.78;100.00;96000.53;1035602;28;20153;-51
2021/09/10 02:10:10;;;;;;;13.95;12.55;;;;;;;13.85;100.00;96003.53;1035986;28;20018;-52
2021/09/10 02:10:40;;;;;;;14.85;13.27;;;;;;;13.89;100.00;95994.41;1036110;28;20014;-53
2021/09/10 02:11:11;;;;;;;14.07;12.63;;;;;;;13.84;100.00;96001.00;1036025;28;20018;-52
2021/09/10 02:11:43;;;;;;;14.02;12.05;;;;;;;13.83;100.00;95991.41;1032167;28;20106;-54
2021/09/10 02:12:14;;;;;;;15.25;13.65;;;;;;;13.79;100.00;95994.31;1035708;28;20037;-51
2021/09/10 02:12:45;;;;;;;15.32;12.65;;;;;;;13.77;100.00;96001.50;1031627;28;20045;-51
2021/09/10 02:13:16;;;;;;;16.80;13.73;;;;;;;13.73;100.00;96007.97;1039551;28;20546;-52
2021/09/10 02:13:47;;;;;;;17.65;13.57;;;;;;;13.77;100.00;96001.50;1035770;28;20022;-52
2021/09/10 02:14:18;;;;;;;14.77;12.60;;;;;;;13.75;100.00;96002.59;1043882;28;20048;-51
2021/09/10 02:14:48;;;;;;;14.75;13.05;;;;;;;13.76;100.00;96002.47;1039803;28;20021;-52
2021/09/10 02:15:19;;;;;;;16.25;13.20;;;;;;;13.75;100.00;95998.16;1039777;28;20040;-52
2021/09/10 02:15:50;;;;;;;15.10;12.98;;;;;;;13.73;100.00;96002.72;1032869;28;20022;-51
2021/09/10 02:16:20;;;;;;;16.65;13.38;;;;;;;13.69;100.00;96000.47;1027824;28;20097;-52
2021/09/10 02:16:51;;;;;;;15.15;13.02;;;;;;;13.64;100.00;96003.47;1027679;28;20034;-52
2021/09/10 02:17:22;;;;;;;14.75;13.25;;;;;;;13.67;100.00;96005.03;1031621;28;20103;-51
2021/09/10 02:17:52;;;;;;;14.60;12.63;;;;;;;13.73;100.00;96000.06;1031721;28;20022;-53
2021/09/10 02:18:23;;;;;;;14.57;13.02;;;;;;;13.77;100.00;96005.94;1027896;28;20110;-51
2021/09/10 02:18:54;;;;;;;14.55;13.05;;;;;;;13.75;100.00;96000.78;1035603;28;20407;-52
2021/09/10 02:19:24;;;;;;;14.77;13.20;;;;;;;13.77;100.00;96004.13;1027556;28;20057;-52
2021/09/10 02:19:55;;;;;;;15.50;13.90;;;;;;;13.75;100.00;96002.59;1031567;28;20010;-52
2021/09/10 02:20:25;;;;;;;16.40;14.10;;;;;;;13.78;100.00;96007.63;1031732;28;20105;-51